Terminal Aerodrome Forecast
Issued by NWS Austin/San Antonio, TX

Home | Current Version | Previous Version | Text Only | Print | Product List | Glossary On
Versions: 1 2 3 4 5 6 7 8 9 10 11 12 13 14 15 16 17 18 19
000
FTUS44 KEWX 051242 AAA
TAFAUS
TAF AMD
KAUS 051242Z 0513/0618 15005KT 5SM BR BKN009 BKN018
     FM051400 16006KT P6SM BKN012
     FM051600 18014KT P6SM SCT050
     FM060900 17007KT P6SM BKN015
     FM061600 18008KT P6SM SCT050=

USA.gov is the U.S. government's official web portal to all federal, state and local government web resources and services.